createdAt,value
2019-04-07T00:01:06.677Z,13.23
2019-04-07T00:03:37.309Z,12.50
2019-04-07T00:06:07.489Z,13.70
2019-04-07T00:08:37.897Z,13.23
2019-04-07T00:11:07.537Z,12.93
2019-04-07T00:13:37.257Z,12.57
2019-04-07T00:16:07.215Z,13.20
2019-04-07T00:18:37.412Z,14.80
2019-04-07T00:21:07.177Z,13.80
2019-04-07T00:23:36.984Z,13.27
2019-04-07T00:26:06.785Z,13.53
2019-04-07T00:28:36.788Z,13.67
2019-04-07T00:31:06.609Z,13.37
2019-04-07T00:33:36.585Z,14.13
2019-04-07T00:36:06.345Z,14.87
2019-04-07T00:38:36.325Z,16.63
2019-04-07T00:41:06.797Z,21.07
2019-04-07T00:43:36.846Z,20.60
2019-04-07T00:46:06.548Z,20.60
2019-04-07T00:48:36.478Z,20.97
2019-04-07T00:51:07.807Z,21.63
2019-04-07T00:53:38.846Z,20.13
2019-04-07T00:56:09.388Z,18.67
2019-04-07T00:58:39.159Z,18.30
2019-04-07T01:01:11.616Z,19.03
2019-04-07T01:03:43.018Z,18.67
2019-04-07T01:06:12.972Z,17.67
2019-04-07T01:08:42.905Z,18.87
2019-04-07T01:11:13.452Z,17.83
2019-04-07T01:13:43.224Z,17.27
2019-04-07T01:16:13.287Z,16.53
2019-04-07T01:18:43.705Z,16.03
2019-04-07T01:21:13.819Z,16.07
2019-04-07T01:23:44.645Z,16.90
2019-04-07T01:26:14.425Z,15.87
2019-04-07T01:28:44.154Z,17.07
2019-04-07T01:31:14.400Z,16.13
2019-04-07T01:33:44.354Z,16.30
2019-04-07T01:36:14.047Z,16.60
2019-04-07T01:38:44.341Z,16.13
2019-04-07T01:44:02.622Z,15.13
2019-04-07T01:46:33.986Z,16.97
2019-04-07T01:49:11.743Z,15.57
2019-04-07T01:51:49.662Z,15.50
2019-04-07T01:54:33.525Z,15.33
2019-04-07T01:57:17.006Z,16.43
2019-04-07T02:00:03.416Z,16.10
2019-04-07T02:02:37.266Z,17.70
2019-04-07T02:05:12.304Z,19.83
2019-04-07T02:07:55.405Z,21.17
2019-04-07T02:10:27.441Z,17.83
2019-04-07T02:13:05.943Z,18.13
2019-04-07T02:15:40.581Z,19.60
2019-04-07T02:18:12.374Z,18.03
2019-04-07T02:21:04.338Z,17.17
2019-04-07T02:23:50.957Z,18.10
2019-04-07T02:26:37.788Z,19.10
2019-04-07T02:29:19.232Z,20.57
2019-04-07T02:32:06.189Z,23.80
2019-04-07T02:34:53.767Z,21.13
2019-04-07T02:37:40.971Z,21.47
2019-04-07T02:40:12.592Z,22.30
2019-04-07T02:42:47.027Z,20.07
2019-04-07T02:45:28.332Z,19.43
2019-04-07T02:48:01.058Z,18.37
2019-04-07T02:50:33.350Z,18.87
2019-04-07T02:53:07.889Z,19.00
2019-04-07T02:55:55.501Z,16.73
2019-04-07T02:58:38.917Z,17.97
2019-04-07T03:01:11.469Z,17.53
2019-04-07T03:03:42.873Z,17.83
2019-04-07T03:06:32.478Z,17.67
2019-04-07T03:08:59.436Z,18.40
2019-04-07T03:11:46.584Z,18.53
2019-04-07T03:14:18.303Z,18.20
2019-04-07T03:16:55.828Z,18.53
2019-04-07T03:19:46.735Z,18.70
2019-04-07T03:22:27.838Z,19.20
2019-04-07T03:25:05.593Z,17.03
2019-04-07T03:27:44.414Z,17.27
2019-04-07T03:30:21.810Z,16.57
2019-04-07T03:32:55.378Z,15.63
2019-04-07T03:35:29.066Z,15.27
2019-04-07T03:38:00.824Z,16.40
2019-04-07T03:40:49.616Z,15.73
2019-04-07T03:43:22.017Z,15.77
2019-04-07T03:46:00.299Z,16.00
2019-04-07T03:48:38.094Z,15.53
2019-04-07T03:51:15.204Z,15.83
2019-04-07T03:53:47.433Z,14.13
2019-04-07T03:56:30.820Z,14.33
2019-04-07T03:59:18.343Z,14.17
2019-04-07T04:01:52.398Z,13.67
2019-04-07T04:04:37.257Z,13.57
2019-04-07T04:07:32.350Z,14.93
2019-04-07T04:10:17.352Z,14.57
2019-04-07T04:12:58.652Z,14.60
2019-04-07T04:15:31.186Z,14.33
2019-04-07T04:18:01.272Z,14.00
2019-04-07T04:20:31.074Z,13.57
2019-04-07T04:23:00.886Z,13.97
2019-04-07T04:25:30.626Z,14.33
2019-04-07T04:28:01.226Z,14.30
2019-04-07T04:30:32.025Z,15.93
2019-04-07T04:33:03.905Z,15.27
2019-04-07T04:35:34.007Z,15.23
2019-04-07T04:38:03.965Z,15.03
2019-04-07T04:40:33.615Z,15.83
2019-04-07T04:43:04.649Z,15.70
2019-04-07T04:45:34.626Z,14.70
2019-04-07T04:48:04.775Z,14.77
2019-04-07T04:50:35.376Z,13.73
2019-04-07T04:53:06.184Z,14.00
2019-04-07T04:55:37.275Z,13.87
2019-04-07T04:58:08.767Z,14.67
2019-04-07T05:00:40.434Z,15.83
2019-04-07T05:03:11.234Z,15.77
2019-04-07T05:05:41.386Z,16.30
2019-04-07T05:08:11.468Z,15.00
2019-04-07T05:10:41.658Z,17.57
2019-04-07T05:13:11.526Z,15.77
2019-04-07T05:15:41.124Z,17.03
2019-04-07T05:18:10.891Z,15.97
2019-04-07T05:20:40.871Z,17.20
2019-04-07T05:23:10.985Z,17.37
2019-04-07T05:25:41.556Z,17.33
2019-04-07T05:28:11.343Z,17.63
2019-04-07T05:30:41.449Z,17.47
2019-04-07T05:33:11.324Z,26.53
2019-04-07T05:35:41.282Z,36.60
2019-04-07T05:38:11.328Z,24.00
2019-04-07T05:40:41.183Z,21.27
2019-04-07T05:43:11.880Z,17.53
2019-04-07T05:45:42.011Z,16.10
2019-04-07T05:48:12.203Z,15.93
2019-04-07T05:50:43.017Z,14.97
2019-04-07T05:53:14.833Z,13.97
2019-04-07T05:55:46.025Z,14.17
2019-04-07T05:58:15.913Z,15.00
2019-04-07T06:00:46.989Z,15.20
2019-04-07T06:03:18.719Z,14.50
2019-04-07T06:05:51.184Z,16.70
2019-04-07T06:08:27.741Z,16.47
2019-04-07T06:10:56.559Z,29.37
2019-04-07T06:13:23.683Z,33.37
2019-04-07T06:15:54.066Z,18.87
2019-04-07T06:18:23.980Z,19.97
2019-04-07T06:20:53.780Z,19.63
2019-04-07T06:23:28.573Z,22.50
2019-04-07T06:25:59.463Z,24.87
2019-04-07T06:28:29.294Z,21.77
2019-04-07T06:31:00.247Z,23.83
2019-04-07T06:33:32.047Z,25.97
2019-04-07T06:36:01.941Z,24.20
2019-04-07T06:38:35.901Z,24.03
2019-04-07T06:41:04.817Z,23.57
2019-04-07T06:43:36.637Z,23.43
2019-04-07T06:46:10.920Z,23.03
2019-04-07T06:48:58.482Z,22.93
2019-04-07T06:51:48.093Z,24.07
2019-04-07T06:54:36.261Z,22.60
2019-04-07T06:57:08.446Z,21.40
2019-04-07T06:59:49.060Z,22.50
2019-04-07T07:02:30.215Z,43.33
2019-04-07T07:05:05.195Z,41.27
2019-04-07T07:07:48.173Z,21.30
2019-04-07T07:10:40.067Z,21.47
2019-04-07T07:13:29.243Z,20.63
2019-04-07T07:16:10.428Z,20.10
2019-04-07T07:18:42.542Z,21.60
2019-04-07T07:21:33.975Z,19.63
2019-04-07T07:24:02.363Z,20.80
2019-04-07T07:26:35.271Z,20.60
2019-04-07T07:29:06.424Z,20.33
2019-04-07T07:31:35.941Z,19.40
2019-04-07T07:34:09.362Z,19.37
2019-04-07T07:36:38.226Z,19.60
2019-04-07T07:39:11.366Z,20.47
2019-04-07T07:41:40.952Z,21.47
2019-04-07T07:44:10.800Z,21.50
2019-04-07T07:46:43.186Z,20.83
2019-04-07T07:49:13.629Z,21.03
2019-04-07T07:51:46.945Z,20.93
2019-04-07T07:54:18.311Z,21.17
2019-04-07T07:56:50.214Z,18.70
2019-04-07T07:59:20.097Z,19.87
2019-04-07T08:01:51.656Z,19.57
2019-04-07T08:04:24.915Z,20.13
2019-04-07T08:06:54.475Z,27.03
2019-04-07T08:09:26.005Z,20.30
2019-04-07T08:11:55.841Z,18.83
2019-04-07T08:14:26.041Z,19.53
2019-04-07T08:17:00.169Z,19.77
2019-04-07T08:19:30.859Z,18.57
2019-04-07T08:22:03.187Z,18.40
2019-04-07T08:24:35.158Z,18.40
2019-04-07T08:27:05.180Z,19.37
2019-04-07T08:29:37.100Z,18.70
2019-04-07T08:32:06.664Z,18.50
2019-04-07T08:34:37.224Z,17.53
2019-04-07T08:37:08.415Z,17.03
2019-04-07T08:39:38.738Z,14.77
2019-04-07T08:42:11.806Z,22.07
2019-04-07T08:44:40.826Z,15.60
2019-04-07T08:47:18.854Z,15.07
2019-04-07T08:49:47.084Z,12.00
2019-04-07T08:52:17.485Z,22.20
2019-04-07T08:54:50.330Z,33.13
2019-04-07T08:57:19.711Z,11.20
2019-04-07T08:59:52.772Z,12.37
2019-04-07T09:02:26.862Z,9.70
2019-04-07T09:04:55.889Z,10.67
2019-04-07T09:07:28.720Z,9.50
2019-04-07T09:09:58.727Z,17.67
2019-04-07T09:12:30.970Z,12.80
2019-04-07T09:15:03.158Z,11.27
2019-04-07T09:17:44.595Z,9.93
2019-04-07T09:20:14.675Z,9.73
2019-04-07T09:22:51.559Z,8.00
2019-04-07T09:25:27.354Z,8.43
2019-04-07T09:28:15.344Z,8.80
2019-04-07T09:30:48.290Z,7.07
2019-04-07T09:33:21.590Z,7.00
2019-04-07T09:36:00.614Z,7.00
2019-04-07T09:38:33.602Z,6.27
2019-04-07T09:41:09.444Z,6.70
2019-04-07T09:43:47.362Z,6.30
2019-04-07T09:46:19.113Z,12.80
2019-04-07T09:48:59.986Z,6.97
2019-04-07T09:51:32.051Z,6.97
2019-04-07T09:54:07.158Z,7.00
2019-04-07T09:56:56.156Z,5.67
2019-04-07T09:59:40.025Z,5.37
2019-04-07T10:02:32.036Z,5.50
2019-04-07T10:05:19.012Z,20.97
2019-04-07T10:08:03.336Z,9.87
2019-04-07T10:10:53.016Z,5.67
2019-04-07T10:13:26.444Z,5.70
2019-04-07T10:15:58.332Z,4.83
2019-04-07T10:18:42.925Z,5.10
2019-04-07T10:21:18.351Z,4.70
2019-04-07T10:23:51.575Z,5.37
2019-04-07T10:26:33.744Z,5.67
2019-04-07T10:29:21.951Z,5.70
2019-04-07T10:32:08.843Z,5.63
2019-04-07T10:34:40.790Z,5.77
2019-04-07T10:37:25.502Z,5.47
2019-04-07T10:40:19.538Z,5.87
2019-04-07T10:42:47.310Z,3.80
2019-04-07T10:45:22.854Z,4.40
2019-04-07T10:47:55.185Z,4.43
2019-04-07T10:50:36.762Z,4.17
2019-04-07T10:53:22.779Z,3.97
2019-04-07T10:55:57.457Z,2.77
2019-04-07T10:58:46.108Z,2.93
2019-04-07T11:01:17.765Z,3.60
2019-04-07T11:03:59.463Z,4.30
2019-04-07T11:06:47.119Z,3.70
2019-04-07T11:09:37.734Z,3.67
2019-04-07T11:12:27.625Z,4.53
2019-04-07T11:15:20.313Z,39.07
2019-04-07T11:18:04.202Z,3.87
2019-04-07T11:20:41.328Z,3.40
2019-04-07T11:23:13.053Z,3.40
2019-04-07T11:25:46.118Z,3.70
2019-04-07T11:28:28.844Z,3.93
2019-04-07T11:31:00.542Z,4.97
2019-04-07T11:33:32.879Z,4.73
2019-04-07T11:36:08.430Z,5.50
2019-04-07T11:38:54.898Z,5.93
2019-04-07T11:41:36.059Z,4.90
2019-04-07T11:44:22.885Z,3.90
2019-04-07T11:47:02.084Z,3.70
2019-04-07T11:49:34.557Z,3.93
2019-04-07T11:52:18.456Z,3.47
2019-04-07T11:55:08.548Z,4.00
2019-04-07T11:58:02.925Z,3.87
2019-04-07T12:00:39.808Z,5.90
2019-04-07T12:03:26.877Z,3.90
2019-04-07T12:05:57.068Z,3.80
2019-04-07T12:08:44.513Z,4.30
2019-04-07T12:11:19.952Z,3.07
2019-04-07T12:14:00.852Z,3.93
2019-04-07T12:16:33.737Z,4.10
2019-04-07T12:19:20.379Z,2.73
2019-04-07T12:22:10.418Z,3.47
2019-04-07T12:24:44.464Z,2.67
2019-04-07T12:27:32.001Z,2.80
2019-04-07T12:30:21.457Z,2.67
2019-04-07T12:32:55.888Z,2.20
2019-04-07T12:35:37.719Z,2.80
2019-04-07T12:38:26.426Z,2.20
2019-04-07T12:41:11.483Z,2.30
2019-04-07T12:43:37.769Z,2.60
2019-04-07T12:46:25.425Z,3.17
2019-04-07T12:49:12.210Z,3.33
2019-04-07T12:51:46.081Z,2.30
2019-04-07T12:54:23.731Z,4.17
2019-04-07T12:57:12.186Z,3.20
2019-04-07T12:59:54.961Z,2.40
2019-04-07T13:02:34.983Z,3.27
2019-04-07T13:05:19.655Z,2.90
2019-04-07T13:08:01.604Z,2.70
2019-04-07T13:10:51.231Z,2.47
2019-04-07T13:13:29.555Z,3.70
2019-04-07T13:16:09.176Z,4.43
2019-04-07T13:18:42.463Z,5.43
2019-04-07T13:21:25.059Z,5.03
2019-04-07T13:24:12.695Z,6.23
2019-04-07T13:26:47.326Z,7.57
2019-04-07T13:29:35.894Z,11.00
2019-04-07T13:32:07.665Z,7.33
2019-04-07T13:34:55.418Z,5.90
2019-04-07T13:37:26.602Z,5.50
2019-04-07T13:40:05.020Z,5.30
2019-04-07T13:42:42.832Z,4.33
2019-04-07T13:45:16.856Z,4.47
2019-04-07T13:47:49.497Z,4.63
2019-04-07T13:50:33.311Z,6.20
2019-04-07T13:53:25.807Z,3.90
2019-04-07T13:56:05.112Z,3.40
2019-04-07T13:58:52.843Z,3.37
2019-04-07T14:01:24.021Z,3.70
2019-04-07T14:04:12.086Z,3.73
2019-04-07T14:06:45.888Z,7.00
2019-04-07T14:09:21.111Z,5.63
2019-04-07T14:12:04.207Z,4.87
2019-04-07T14:14:35.998Z,5.33
2019-04-07T14:17:24.758Z,5.40
2019-04-07T14:19:59.488Z,4.70
2019-04-07T14:22:31.090Z,5.00
2019-04-07T14:25:05.338Z,5.20
2019-04-07T14:27:42.693Z,5.23
2019-04-07T14:30:14.560Z,4.97
2019-04-07T14:32:52.065Z,5.17
2019-04-07T14:35:26.932Z,8.70
2019-04-07T14:38:15.852Z,5.80
2019-04-07T14:41:01.105Z,5.13
2019-04-07T14:43:34.438Z,5.27
2019-04-07T14:46:23.900Z,4.87
2019-04-07T14:48:55.251Z,5.37
2019-04-07T14:51:42.828Z,5.00
2019-04-07T14:54:29.246Z,5.03
2019-04-07T14:57:13.263Z,4.90
2019-04-07T14:59:45.509Z,4.63
2019-04-07T15:02:18.295Z,4.93
2019-04-07T15:04:50.958Z,16.00
2019-04-07T15:07:40.826Z,4.37
2019-04-07T15:10:17.975Z,3.63
2019-04-07T15:13:01.754Z,3.53
2019-04-07T15:15:32.524Z,3.20
2019-04-07T15:18:05.808Z,3.10
2019-04-07T15:20:42.698Z,3.00
2019-04-07T15:23:12.187Z,2.97
2019-04-07T15:25:46.026Z,3.30
2019-04-07T15:28:17.405Z,3.17
2019-04-07T15:30:50.433Z,3.67
2019-04-07T15:33:21.153Z,3.60
2019-04-07T15:35:52.432Z,4.67
2019-04-07T15:38:26.718Z,4.43
2019-04-07T15:41:07.619Z,4.43
2019-04-07T15:43:40.074Z,4.37
2019-04-07T15:46:10.595Z,4.40
2019-04-07T15:48:48.552Z,5.37
2019-04-07T15:51:22.999Z,4.27
2019-04-07T15:53:58.623Z,3.47
2019-04-07T15:56:30.400Z,3.43
2019-04-07T15:59:02.011Z,3.77
2019-04-07T16:01:33.722Z,5.00
2019-04-07T16:04:08.634Z,19.00
2019-04-07T16:06:39.501Z,8.23
2019-04-07T16:09:28.396Z,4.60
2019-04-07T16:11:44.615Z,3.53
2019-04-07T16:14:18.083Z,3.60
2019-04-07T16:16:47.816Z,3.50
2019-04-07T16:19:24.920Z,3.00
2019-04-07T16:21:49.404Z,7.30
2019-04-07T16:24:22.710Z,3.50
2019-04-07T16:26:53.501Z,3.50
2019-04-07T16:29:25.589Z,3.40
2019-04-07T16:31:58.686Z,3.40
2019-04-07T16:34:29.137Z,3.37
2019-04-07T16:37:07.315Z,3.40
2019-04-07T16:39:38.772Z,3.37
2019-04-07T16:42:11.029Z,10.37
2019-04-07T16:44:43.882Z,7.90
2019-04-07T16:47:21.871Z,5.07
2019-04-07T16:49:48.839Z,3.90
2019-04-07T16:52:19.002Z,4.20
2019-04-07T16:54:49.142Z,4.47
2019-04-07T16:57:18.983Z,4.63
2019-04-07T16:59:49.222Z,34.73
2019-04-07T17:02:22.058Z,21.93
2019-04-07T17:04:52.667Z,4.80
2019-04-07T17:07:23.338Z,4.23
2019-04-07T17:09:56.433Z,4.03
2019-04-07T17:12:26.970Z,3.93
2019-04-07T17:14:57.582Z,3.60
2019-04-07T17:17:28.311Z,3.60
2019-04-07T17:19:59.601Z,3.40
2019-04-07T17:22:31.492Z,3.90
2019-04-07T17:25:05.020Z,3.87
2019-04-07T17:27:33.350Z,3.90
2019-04-07T17:30:03.669Z,4.43
2019-04-07T17:32:35.744Z,4.37
2019-04-07T17:35:07.343Z,4.57
2019-04-07T17:37:37.448Z,15.13
2019-04-07T17:40:13.058Z,6.77
2019-04-07T17:42:42.150Z,6.03
2019-04-07T17:45:30.849Z,8.40
2019-04-07T17:48:19.149Z,8.83
2019-04-07T17:51:09.723Z,6.17
2019-04-07T17:53:50.620Z,4.97
2019-04-07T17:56:24.295Z,4.60
2019-04-07T17:59:00.711Z,4.70
2019-04-07T18:01:41.029Z,4.60
2019-04-07T18:04:18.900Z,4.93
2019-04-07T18:06:57.182Z,25.93
2019-04-07T18:09:28.741Z,14.00
2019-04-07T18:12:18.410Z,12.07
2019-04-07T18:15:04.367Z,9.37
2019-04-07T18:17:48.897Z,10.43
2019-04-07T18:20:40.478Z,16.10
2019-04-07T18:23:34.681Z,13.53
2019-04-07T18:26:10.416Z,13.43
2019-04-07T18:28:45.347Z,13.57
2019-04-07T18:31:37.876Z,10.83
2019-04-07T18:34:27.135Z,7.90
2019-04-07T18:37:13.040Z,6.83
2019-04-07T18:39:52.393Z,7.57
2019-04-07T18:42:21.987Z,9.17
2019-04-07T18:44:57.612Z,7.43
2019-04-07T18:47:32.525Z,8.30
2019-04-07T18:50:21.987Z,11.23
2019-04-07T18:53:10.782Z,11.17
2019-04-07T18:55:42.251Z,7.60
2019-04-07T18:58:26.747Z,7.80
2019-04-07T19:01:13.713Z,7.30
2019-04-07T19:03:51.173Z,8.53
2019-04-07T19:06:30.065Z,7.70
2019-04-07T19:09:12.437Z,7.70
2019-04-07T19:11:50.187Z,7.50
2019-04-07T19:14:40.258Z,7.27
2019-04-07T19:17:01.024Z,8.83
2019-04-07T19:19:35.507Z,12.63
2019-04-07T19:22:26.748Z,14.70
2019-04-07T19:25:11.122Z,13.07
2019-04-07T19:27:54.784Z,14.97
2019-04-07T19:30:43.902Z,12.03
2019-04-07T19:33:19.233Z,14.47
2019-04-07T19:36:10.289Z,18.27
2019-04-07T19:38:52.193Z,15.53
2019-04-07T19:41:31.474Z,49.43
2019-04-07T19:44:07.759Z,41.70
2019-04-07T19:46:39.221Z,19.23
2019-04-07T19:49:22.558Z,8.17
2019-04-07T19:52:09.758Z,9.73
2019-04-07T19:54:49.334Z,9.13
2019-04-07T19:57:28.207Z,9.33
2019-04-07T20:00:02.816Z,8.73
2019-04-07T20:02:45.118Z,9.70
2019-04-07T20:05:21.121Z,9.53
2019-04-07T20:07:56.152Z,7.30
2019-04-07T20:10:28.233Z,6.73
2019-04-07T20:13:09.163Z,8.53
2019-04-07T20:15:58.779Z,8.30
2019-04-07T20:18:36.164Z,9.00
2019-04-07T20:21:13.149Z,8.87
2019-04-07T20:24:04.583Z,9.20
2019-04-07T20:26:46.025Z,15.90
2019-04-07T20:29:20.125Z,11.97
2019-04-07T20:31:57.514Z,10.93
2019-04-07T20:34:29.642Z,10.53
2019-04-07T20:37:13.247Z,10.90
2019-04-07T20:39:58.849Z,10.87
2019-04-07T20:42:38.857Z,13.23
2019-04-07T20:45:18.732Z,11.97
2019-04-07T20:48:05.105Z,11.83
2019-04-07T20:50:46.073Z,12.23
2019-04-07T20:53:29.836Z,12.20
2019-04-07T20:56:00.442Z,11.27
2019-04-07T20:58:47.361Z,12.00
2019-04-07T21:01:17.330Z,11.70
2019-04-07T21:03:49.376Z,11.53
2019-04-07T21:06:32.108Z,11.20
2019-04-07T21:09:09.927Z,11.73
2019-04-07T21:11:58.785Z,11.13
2019-04-07T21:14:47.315Z,12.33
2019-04-07T21:17:21.833Z,13.07
2019-04-07T21:20:11.722Z,12.93
2019-04-07T21:22:56.141Z,13.67
2019-04-07T21:25:41.254Z,13.80
2019-04-07T21:28:16.747Z,12.77
2019-04-07T21:30:50.399Z,13.53
2019-04-07T21:33:28.215Z,15.80
2019-04-07T21:36:06.454Z,13.20
2019-04-07T21:38:54.840Z,12.20
2019-04-07T21:41:31.233Z,13.10
2019-04-07T21:44:18.886Z,12.60
2019-04-07T21:47:06.477Z,11.30
2019-04-07T21:49:46.948Z,10.90
2019-04-07T21:52:21.724Z,13.13
2019-04-07T21:54:51.672Z,13.87
2019-04-07T21:57:24.469Z,12.93
2019-04-07T21:59:59.908Z,13.20
2019-04-07T22:02:33.444Z,12.80
2019-04-07T22:05:04.902Z,13.73
2019-04-07T22:07:48.619Z,13.67
2019-04-07T22:10:20.470Z,14.47
2019-04-07T22:12:50.300Z,13.60
2019-04-07T22:15:20.060Z,14.33
2019-04-07T22:17:50.067Z,14.73
2019-04-07T22:20:20.621Z,14.47
2019-04-07T22:22:54.349Z,14.00
2019-04-07T22:25:33.517Z,13.70
2019-04-07T22:28:03.441Z,12.70
2019-04-07T22:30:40.140Z,12.53
2019-04-07T22:33:10.433Z,12.43
2019-04-07T22:35:42.736Z,12.50
2019-04-07T22:38:12.269Z,12.07
2019-04-07T22:40:41.765Z,11.27
2019-04-07T22:43:16.721Z,11.10
2019-04-07T22:45:55.081Z,10.53
2019-04-07T22:48:22.850Z,11.20
2019-04-07T22:50:51.835Z,10.90
2019-04-07T22:53:27.431Z,10.47
2019-04-07T22:55:56.903Z,10.90
2019-04-07T22:58:27.820Z,9.87
2019-04-07T23:00:59.306Z,9.83
2019-04-07T23:03:32.237Z,9.83
2019-04-07T23:06:05.185Z,10.57
2019-04-07T23:08:36.990Z,9.93
2019-04-07T23:11:09.264Z,9.43
2019-04-07T23:13:39.726Z,8.50
2019-04-07T23:16:14.936Z,8.10
2019-04-07T23:18:44.497Z,8.27
2019-04-07T23:21:14.966Z,7.30
2019-04-07T23:23:44.928Z,7.30
2019-04-07T23:26:14.683Z,7.20
2019-04-07T23:28:44.500Z,7.10
2019-04-07T23:31:14.183Z,6.77
2019-04-07T23:33:44.084Z,6.47
2019-04-07T23:36:15.748Z,5.83
2019-04-07T23:38:45.386Z,6.03
2019-04-07T23:41:16.804Z,5.97
2019-04-07T23:43:46.592Z,6.60
2019-04-07T23:46:23.158Z,6.73
2019-04-07T23:48:51.849Z,6.10
2019-04-07T23:51:21.752Z,5.90
2019-04-07T23:54:11.799Z,5.73
2019-04-07T23:56:44.665Z,5.73
2019-04-07T23:59:14.865Z,6.53
